sensor_id;sensor_type;location;lat;lon;timestamp;pressure;altitude;pressure_sealevel;temperature;humidity
18813;BME280;9534;51.140;6.296;2023-04-07T00:02:18;100480.81;;;8.93;100.00
18813;BME280;9534;51.140;6.296;2023-04-07T00:06:22;100482.91;;;8.91;100.00
18813;BME280;9534;51.140;6.296;2023-04-07T00:10:25;100489.66;;;8.95;100.00
18813;BME280;9534;51.140;6.296;2023-04-07T00:14:28;100498.06;;;8.94;100.00
18813;BME280;9534;51.140;6.296;2023-04-07T00:18:33;100491.53;;;8.95;100.00
18813;BME280;9534;51.140;6.296;2023-04-07T00:22:36;100484.41;;;8.94;100.00
18813;BME280;9534;51.140;6.296;2023-04-07T00:26:39;100491.72;;;8.93;100.00
18813;BME280;9534;51.140;6.296;2023-04-07T00:30:42;100503.91;;;8.91;100.00
18813;BME280;9534;51.140;6.296;2023-04-07T00:34:47;100487.31;;;8.92;100.00
18813;BME280;9534;51.140;6.296;2023-04-07T00:38:50;100500.31;;;8.90;100.00
18813;BME280;9534;51.140;6.296;2023-04-07T00:42:53;100496.94;;;8.88;100.00
18813;BME280;9534;51.140;6.296;2023-04-07T00:46:56;100493.81;;;8.91;100.00
18813;BME280;9534;51.140;6.296;2023-04-07T00:51:01;100479.53;;;8.89;100.00
18813;BME280;9534;51.140;6.296;2023-04-07T00:55:05;100484.97;;;8.83;100.00
18813;BME280;9534;51.140;6.296;2023-04-07T00:59:08;100475.28;;;8.80;100.00
18813;BME280;9534;51.140;6.296;2023-04-07T01:03:16;100476.56;;;8.78;100.00
18813;BME280;9534;51.140;6.296;2023-04-07T01:07:24;100475.28;;;8.74;100.00
18813;BME280;9534;51.140;6.296;2023-04-07T01:11:41;100474.41;;;8.73;100.00
18813;BME280;9534;51.140;6.296;2023-04-07T01:15:53;100480.91;;;8.72;100.00
18813;BME280;9534;51.140;6.296;2023-04-07T01:20:02;100481.97;;;8.71;100.00
18813;BME280;9534;51.140;6.296;2023-04-07T01:24:26;100481.97;;;8.71;100.00
18813;BME280;9534;51.140;6.296;2023-04-07T01:28:48;100472.31;;;8.69;100.00
18813;BME280;9534;51.140;6.296;2023-04-07T01:32:55;100471.44;;;8.68;100.00
18813;BME280;9534;51.140;6.296;2023-04-07T01:37:01;100474.41;;;8.67;100.00
18813;BME280;9534;51.140;6.296;2023-04-07T01:41:05;100469.34;;;8.64;100.00
18813;BME280;9534;51.140;6.296;2023-04-07T01:45:10;100479.41;;;8.63;100.00
18813;BME280;9534;51.140;6.296;2023-04-07T01:49:14;100473.94;;;8.63;100.00
18813;BME280;9534;51.140;6.296;2023-04-07T01:53:18;100471.44;;;8.62;100.00
18813;BME280;9534;51.140;6.296;2023-04-07T01:57:22;100478.75;;;8.61;100.00
18813;BME280;9534;51.140;6.296;2023-04-07T02:01:30;100477.94;;;8.61;100.00
18813;BME280;9534;51.140;6.296;2023-04-07T02:05:37;100480.41;;;8.56;100.00
18813;BME280;9534;51.140;6.296;2023-04-07T02:09:44;100474.78;;;8.58;100.00
18813;BME280;9534;51.140;6.296;2023-04-07T02:13:52;100475.19;;;8.55;100.00
18813;BME280;9534;51.140;6.296;2023-04-07T02:17:58;100478.94;;;8.54;100.00
18813;BME280;9534;51.140;6.296;2023-04-07T02:22:04;100478.50;;;8.50;100.00
18813;BME280;9534;51.140;6.296;2023-04-07T02:26:08;100482.66;;;8.46;100.00
18813;BME280;9534;51.140;6.296;2023-04-07T02:30:13;100488.97;;;8.47;100.00
18813;BME280;9534;51.140;6.296;2023-04-07T02:34:16;100478.88;;;8.41;100.00
18813;BME280;9534;51.140;6.296;2023-04-07T02:38:20;100466.28;;;8.40;100.00
18813;BME280;9534;51.140;6.296;2023-04-07T02:42:24;100469.66;;;8.42;100.00
18813;BME280;9534;51.140;6.296;2023-04-07T02:46:28;100468.38;;;8.38;100.00
18813;BME280;9534;51.140;6.296;2023-04-07T02:50:32;100467.72;;;8.36;100.00
18813;BME280;9534;51.140;6.296;2023-04-07T02:54:36;100465.41;;;8.39;100.00
18813;BME280;9534;51.140;6.296;2023-04-07T02:58:40;100470.19;;;8.31;100.00
18813;BME280;9534;51.140;6.296;2023-04-07T03:02:43;100479.81;;;8.27;100.00
18813;BME280;9534;51.140;6.296;2023-04-07T03:06:48;100478.78;;;8.28;100.00
18813;BME280;9534;51.140;6.296;2023-04-07T03:10:52;100479.41;;;8.30;100.00
18813;BME280;9534;51.140;6.296;2023-04-07T03:15:01;100481.28;;;8.29;100.00
18813;BME280;9534;51.140;6.296;2023-04-07T03:19:07;100485.50;;;8.32;100.00
18813;BME280;9534;51.140;6.296;2023-04-07T03:23:14;100481.66;;;8.26;100.00
18813;BME280;9534;51.140;6.296;2023-04-07T03:27:19;100482.53;;;8.27;100.00
18813;BME280;9534;51.140;6.296;2023-04-07T03:31:23;100485.91;;;8.29;100.00
18813;BME280;9534;51.140;6.296;2023-04-07T03:35:28;100482.53;;;8.27;100.00
18813;BME280;9534;51.140;6.296;2023-04-07T03:39:31;100479.97;;;8.25;100.00
18813;BME280;9534;51.140;6.296;2023-04-07T03:43:46;100483.72;;;8.24;100.00
18813;BME280;9534;51.140;6.296;2023-04-07T03:47:49;100473.69;;;8.25;100.00
18813;BME280;9534;51.140;6.296;2023-04-07T03:51:54;100482.53;;;8.27;100.00
18813;BME280;9534;51.140;6.296;2023-04-07T03:55:58;100479.94;;;8.19;100.00
18813;BME280;9534;51.140;6.296;2023-04-07T04:00:19;100478.03;;;8.19;100.00
18813;BME280;9534;51.140;6.296;2023-04-07T04:04:37;100484.50;;;8.12;100.00
18813;BME280;9534;51.140;6.296;2023-04-07T04:08:42;100485.53;;;8.11;100.00
18813;BME280;9534;51.140;6.296;2023-04-07T04:12:47;100493.72;;;8.11;100.00
18813;BME280;9534;51.140;6.296;2023-04-07T04:16:52;100485.94;;;8.08;100.00
18813;BME280;9534;51.140;6.296;2023-04-07T04:21:03;100490.72;;;8.06;100.00
18813;BME280;9534;51.140;6.296;2023-04-07T04:25:08;100499.31;;;8.03;100.00
18813;BME280;9534;51.140;6.296;2023-04-07T04:29:13;100498.66;;;8.01;100.00
18813;BME280;9534;51.140;6.296;2023-04-07T04:33:19;100497.63;;;8.02;100.00
18813;BME280;9534;51.140;6.296;2023-04-07T04:37:27;100508.25;;;7.97;100.00
18813;BME280;9534;51.140;6.296;2023-04-07T04:41:31;100510.28;;;7.88;100.00
18813;BME280;9534;51.140;6.296;2023-04-07T04:45:35;100507.75;;;7.87;100.00
18813;BME280;9534;51.140;6.296;2023-04-07T04:49:42;100518.22;;;7.83;100.00
18813;BME280;9534;51.140;6.296;2023-04-07T04:53:45;100516.31;;;7.84;100.00
18813;BME280;9534;51.140;6.296;2023-04-07T04:57:50;100524.88;;;7.81;100.00
18813;BME280;9534;51.140;6.296;2023-04-07T05:02:01;100522.09;;;7.74;100.00
18813;BME280;9534;51.140;6.296;2023-04-07T05:06:07;100533.44;;;7.78;100.00
18813;BME280;9534;51.140;6.296;2023-04-07T05:10:10;100537.41;;;7.75;100.00
18813;BME280;9534;51.140;6.296;2023-04-07T05:14:20;100536.72;;;7.67;100.00
18813;BME280;9534;51.140;6.296;2023-04-07T05:18:30;100538.78;;;7.65;100.00
18813;BME280;9534;51.140;6.296;2023-04-07T05:22:35;100540.19;;;7.61;100.00
18813;BME280;9534;51.140;6.296;2023-04-07T05:26:41;100547.91;;;7.57;100.00
18813;BME280;9534;51.140;6.296;2023-04-07T05:30:44;100553.22;;;7.65;100.00
18813;BME280;9534;51.140;6.296;2023-04-07T05:34:47;100560.31;;;7.60;100.00
18813;BME280;9534;51.140;6.296;2023-04-07T05:38:52;100563.03;;;7.60;100.00
18813;BME280;9534;51.140;6.296;2023-04-07T05:42:56;100566.66;;;7.67;100.00
18813;BME280;9534;51.140;6.296;2023-04-07T05:47:01;100555.78;;;7.67;100.00
18813;BME280;9534;51.140;6.296;2023-04-07T05:51:07;100571.50;;;7.71;100.00
18813;BME280;9534;51.140;6.296;2023-04-07T05:55:11;100572.13;;;7.67;100.00
18813;BME280;9534;51.140;6.296;2023-04-07T05:59:17;100577.16;;;7.70;100.00
18813;BME280;9534;51.140;6.296;2023-04-07T06:03:20;100588.50;;;7.73;100.00
18813;BME280;9534;51.140;6.296;2023-04-07T06:07:34;100580.78;;;7.77;100.00
18813;BME280;9534;51.140;6.296;2023-04-07T06:11:38;100602.00;;;7.81;100.00
18813;BME280;9534;51.140;6.296;2023-04-07T06:15:41;100590.78;;;7.91;100.00
18813;BME280;9534;51.140;6.296;2023-04-07T06:19:44;100600.88;;;7.76;100.00
18813;BME280;9534;51.140;6.296;2023-04-07T06:23:48;100610.75;;;7.77;100.00
18813;BME280;9534;51.140;6.296;2023-04-07T06:27:54;100605.00;;;7.86;100.00
18813;BME280;9534;51.140;6.296;2023-04-07T06:31:57;100609.59;;;7.86;100.00
18813;BME280;9534;51.140;6.296;2023-04-07T06:36:01;100612.31;;;7.86;100.00
18813;BME280;9534;51.140;6.296;2023-04-07T06:40:06;100618.03;;;7.91;100.00
18813;BME280;9534;51.140;6.296;2023-04-07T06:44:10;100621.78;;;7.90;100.00
18813;BME280;9534;51.140;6.296;2023-04-07T06:48:14;100627.19;;;7.83;100.00
18813;BME280;9534;51.140;6.296;2023-04-07T06:52:18;100633.94;;;7.87;100.00
18813;BME280;9534;51.140;6.296;2023-04-07T06:56:21;100637.31;;;8.10;100.00
18813;BME280;9534;51.140;6.296;2023-04-07T07:00:26;100643.75;;;8.24;100.00
18813;BME280;9534;51.140;6.296;2023-04-07T07:04:31;100637.06;;;8.47;100.00
18813;BME280;9534;51.140;6.296;2023-04-07T07:08:34;100643.91;;;8.37;100.00
18813;BME280;9534;51.140;6.296;2023-04-07T07:12:37;100645.72;;;8.51;100.00
18813;BME280;9534;51.140;6.296;2023-04-07T07:16:42;100646.34;;;8.53;100.00
18813;BME280;9534;51.140;6.296;2023-04-07T07:20:45;100642.59;;;8.33;100.00
18813;BME280;9534;51.140;6.296;2023-04-07T07:24:48;100646.75;;;8.29;100.00
18813;BME280;9534;51.140;6.296;2023-04-07T07:28:51;100644.06;;;8.35;100.00
18813;BME280;9534;51.140;6.296;2023-04-07T07:32:56;100652.72;;;8.39;100.00
18813;BME280;9534;51.140;6.296;2023-04-07T07:37:00;100653.50;;;8.54;100.00
18813;BME280;9534;51.140;6.296;2023-04-07T07:41:03;100659.00;;;8.60;100.00
18813;BME280;9534;51.140;6.296;2023-04-07T07:45:07;100655.66;;;8.64;100.00
18813;BME280;9534;51.140;6.296;2023-04-07T07:49:11;100667.03;;;8.68;100.00
18813;BME280;9534;51.140;6.296;2023-04-07T07:53:15;100668.44;;;8.85;100.00
18813;BME280;9534;51.140;6.296;2023-04-07T07:57:18;100661.03;;;9.06;100.00
18813;BME280;9534;51.140;6.296;2023-04-07T08:01:21;100667.78;;;9.10;100.00
18813;BME280;9534;51.140;6.296;2023-04-07T08:05:25;100668.25;;;9.20;100.00
18813;BME280;9534;51.140;6.296;2023-04-07T08:09:28;100666.56;;;9.19;100.00
18813;BME280;9534;51.140;6.296;2023-04-07T08:13:32;100668.34;;;9.33;100.00
18813;BME280;9534;51.140;6.296;2023-04-07T08:17:36;100675.09;;;9.37;100.00
18813;BME280;9534;51.140;6.296;2023-04-07T08:21:40;100672.13;;;9.32;100.00
18813;BME280;9534;51.140;6.296;2023-04-07T08:25:43;100666.88;;;9.03;100.00
18813;BME280;9534;51.140;6.296;2023-04-07T08:29:50;100674.53;;;9.14;100.00
18813;BME280;9534;51.140;6.296;2023-04-07T08:33:53;100667.38;;;9.13;100.00
18813;BME280;9534;51.140;6.296;2023-04-07T08:38:00;100669.66;;;9.10;100.00
18813;BME280;9534;51.140;6.296;2023-04-07T08:42:04;100676.22;;;9.15;100.00
18813;BME280;9534;51.140;6.296;2023-04-07T08:46:09;100680.41;;;9.18;100.00
18813;BME280;9534;51.140;6.296;2023-04-07T08:50:15;100691.72;;;9.15;100.00
18813;BME280;9534;51.140;6.296;2023-04-07T08:54:20;100687.31;;;9.14;100.00
18813;BME280;9534;51.140;6.296;2023-04-07T08:58:25;100688.03;;;9.22;100.00
18813;BME280;9534;51.140;6.296;2023-04-07T09:02:28;100699.47;;;9.45;100.00
18813;BME280;9534;51.140;6.296;2023-04-07T09:06:33;100701.03;;;9.20;100.00
18813;BME280;9534;51.140;6.296;2023-04-07T09:10:38;100706.91;;;9.24;100.00
18813;BME280;9534;51.140;6.296;2023-04-07T09:14:41;100706.09;;;9.23;100.00
18813;BME280;9534;51.140;6.296;2023-04-07T09:18:44;100712.88;;;9.34;100.00
18813;BME280;9534;51.140;6.296;2023-04-07T09:22:47;100714.03;;;9.18;100.00
18813;BME280;9534;51.140;6.296;2023-04-07T09:27:07;100719.50;;;9.18;100.00
18813;BME280;9534;51.140;6.296;2023-04-07T09:31:11;100711.94;;;9.20;100.00
18813;BME280;9534;51.140;6.296;2023-04-07T09:35:14;100714.63;;;9.41;100.00
18813;BME280;9534;51.140;6.296;2023-04-07T09:39:17;100714.94;;;9.25;100.00
18813;BME280;9534;51.140;6.296;2023-04-07T09:43:22;100709.75;;;9.09;100.00
18813;BME280;9534;51.140;6.296;2023-04-07T09:47:26;100717.75;;;8.83;100.00
18813;BME280;9534;51.140;6.296;2023-04-07T09:51:30;100718.00;;;8.88;100.00
18813;BME280;9534;51.140;6.296;2023-04-07T09:55:35;100727.06;;;8.95;100.00
18813;BME280;9534;51.140;6.296;2023-04-07T09:59:40;100732.03;;;8.64;100.00
18813;BME280;9534;51.140;6.296;2023-04-07T10:03:46;100734.50;;;8.80;100.00
18813;BME280;9534;51.140;6.296;2023-04-07T10:07:50;100737.34;;;8.93;100.00
18813;BME280;9534;51.140;6.296;2023-04-07T10:11:54;100731.13;;;9.06;100.00
18813;BME280;9534;51.140;6.296;2023-04-07T10:16:02;100738.47;;;8.99;100.00
18813;BME280;9534;51.140;6.296;2023-04-07T10:20:09;100739.44;;;8.91;100.00
18813;BME280;9534;51.140;6.296;2023-04-07T10:24:21;100743.19;;;8.90;100.00
18813;BME280;9534;51.140;6.296;2023-04-07T10:28:29;100743.28;;;8.97;100.00
18813;BME280;9534;51.140;6.296;2023-04-07T10:32:46;100744.88;;;8.91;100.00
18813;BME280;9534;51.140;6.296;2023-04-07T10:37:08;100742.41;;;8.96;100.00
18813;BME280;9534;51.140;6.296;2023-04-07T10:41:33;100747.06;;;9.30;100.00
18813;BME280;9534;51.140;6.296;2023-04-07T10:46:01;100747.69;;;9.59;100.00
18813;BME280;9534;51.140;6.296;2023-04-07T10:50:17;100743.31;;;9.65;100.00
18813;BME280;9534;51.140;6.296;2023-04-07T10:54:21;100740.28;;;9.53;100.00
18813;BME280;9534;51.140;6.296;2023-04-07T10:58:31;100732.41;;;9.71;100.00
18813;BME280;9534;51.140;6.296;2023-04-07T11:02:37;100736.19;;;9.70;100.00
18813;BME280;9534;51.140;6.296;2023-04-07T11:06:47;100731.44;;;9.85;100.00
18813;BME280;9534;51.140;6.296;2023-04-07T11:10:50;100738.97;;;10.23;100.00
18813;BME280;9534;51.140;6.296;2023-04-07T11:14:53;100723.66;;;10.42;100.00
18813;BME280;9534;51.140;6.296;2023-04-07T11:18:57;100728.38;;;10.74;100.00
18813;BME280;9534;51.140;6.296;2023-04-07T11:23:01;100719.06;;;10.49;100.00
18813;BME280;9534;51.140;6.296;2023-04-07T11:27:05;100716.72;;;10.46;100.00
18813;BME280;9534;51.140;6.296;2023-04-07T11:31:09;100714.00;;;10.39;100.00
18813;BME280;9534;51.140;6.296;2023-04-07T11:35:13;100724.78;;;10.60;100.00
18813;BME280;9534;51.140;6.296;2023-04-07T11:39:19;100716.50;;;10.34;100.00
18813;BME280;9534;51.140;6.296;2023-04-07T11:43:24;100722.03;;;9.94;100.00
18813;BME280;9534;51.140;6.296;2023-04-07T11:47:34;100727.00;;;10.31;100.00
18813;BME280;9534;51.140;6.296;2023-04-07T11:51:38;100731.75;;;10.09;100.00
18813;BME280;9534;51.140;6.296;2023-04-07T11:55:43;100730.81;;;10.30;100.00
18813;BME280;9534;51.140;6.296;2023-04-07T11:59:46;100726.03;;;10.58;100.00
18813;BME280;9534;51.140;6.296;2023-04-07T12:03:57;100738.47;;;10.67;100.00
18813;BME280;9534;51.140;6.296;2023-04-07T12:08:01;100724.34;;;10.76;100.00
18813;BME280;9534;51.140;6.296;2023-04-07T12:12:06;100727.72;;;10.52;100.00
18813;BME280;9534;51.140;6.296;2023-04-07T12:16:11;100734.19;;;10.45;100.00
18813;BME280;9534;51.140;6.296;2023-04-07T12:20:15;100747.81;;;10.25;100.00
18813;BME280;9534;51.140;6.296;2023-04-07T12:24:18;100757.38;;;10.02;100.00
18813;BME280;9534;51.140;6.296;2023-04-07T12:28:22;100764.22;;;10.19;100.00
18813;BME280;9534;51.140;6.296;2023-04-07T12:32:25;100766.16;;;10.25;100.00
18813;BME280;9534;51.140;6.296;2023-04-07T12:36:30;100768.97;;;10.04;100.00
18813;BME280;9534;51.140;6.296;2023-04-07T12:40:34;100767.84;;;10.26;100.00
18813;BME280;9534;51.140;6.296;2023-04-07T12:44:40;100782.47;;;10.72;100.00
18813;BME280;9534;51.140;6.296;2023-04-07T12:48:43;100775.63;;;10.29;100.00
18813;BME280;9534;51.140;6.296;2023-04-07T12:52:46;100776.50;;;10.42;100.00
18813;BME280;9534;51.140;6.296;2023-04-07T12:56:50;100776.50;;;10.42;100.00
18813;BME280;9534;51.140;6.296;2023-04-07T13:00:55;100775.75;;;10.81;100.00
18813;BME280;9534;51.140;6.296;2023-04-07T13:04:59;100772.28;;;10.40;100.00
18813;BME280;9534;51.140;6.296;2023-04-07T13:09:02;100778.94;;;10.18;100.00
18813;BME280;9534;51.140;6.296;2023-04-07T13:13:06;100786.28;;;10.11;100.00
18813;BME280;9534;51.140;6.296;2023-04-07T13:17:11;100774.38;;;10.38;100.00
18813;BME280;9534;51.140;6.296;2023-04-07T13:21:14;100778.94;;;10.18;100.00
18813;BME280;9534;51.140;6.296;2023-04-07T13:25:37;100781.44;;;10.13;100.00
18813;BME280;9534;51.140;6.296;2023-04-07T13:29:40;100784.00;;;10.21;100.00
18813;BME280;9534;51.140;6.296;2023-04-07T13:33:45;100779.03;;;9.97;100.00
18813;BME280;9534;51.140;6.296;2023-04-07T13:37:49;100778.94;;;10.18;100.00
18813;BME280;9534;51.140;6.296;2023-04-07T13:41:53;100777.34;;;10.43;100.00
18813;BME280;9534;51.140;6.296;2023-04-07T13:45:57;100782.16;;;10.41;100.00
18813;BME280;9534;51.140;6.296;2023-04-07T13:50:02;100777.31;;;10.36;100.00
18813;BME280;9534;51.140;6.296;2023-04-07T13:54:05;100772.66;;;10.24;100.00
18813;BME280;9534;51.140;6.296;2023-04-07T13:58:09;100781.09;;;10.29;100.00
18813;BME280;9534;51.140;6.296;2023-04-07T14:02:12;100779.41;;;10.28;100.00
18813;BME280;9534;51.140;6.296;2023-04-07T14:06:17;100785.47;;;10.17;100.00
18813;BME280;9534;51.140;6.296;2023-04-07T14:10:23;100785.66;;;10.15;100.00
18813;BME280;9534;51.140;6.296;2023-04-07T14:14:27;100781.94;;;10.36;100.00
18813;BME280;9534;51.140;6.296;2023-04-07T14:18:30;100796.63;;;10.22;100.00
18813;BME280;9534;51.140;6.296;2023-04-07T14:22:35;100794.56;;;10.37;100.00
18813;BME280;9534;51.140;6.296;2023-04-07T14:26:38;100797.06;;;10.32;100.00
18813;BME280;9534;51.140;6.296;2023-04-07T14:30:41;100798.25;;;10.10;100.00
18813;BME280;9534;51.140;6.296;2023-04-07T14:34:44;100810.16;;;10.02;100.00
18813;BME280;9534;51.140;6.296;2023-04-07T14:38:49;100811.78;;;10.18;100.00
18813;BME280;9534;51.140;6.296;2023-04-07T14:42:53;100806.19;;;10.05;100.00
18813;BME280;9534;51.140;6.296;2023-04-07T14:46:59;100816.50;;;10.03;100.00
18813;BME280;9534;51.140;6.296;2023-04-07T14:51:02;100814.31;;;9.85;100.00
18813;BME280;9534;51.140;6.296;2023-04-07T14:55:12;100815.34;;;9.84;100.00
18813;BME280;9534;51.140;6.296;2023-04-07T14:59:15;100821.31;;;10.01;100.00
18813;BME280;9534;51.140;6.296;2023-04-07T15:03:18;100826.31;;;9.97;100.00
18813;BME280;9534;51.140;6.296;2023-04-07T15:07:22;100827.63;;;10.01;100.00
18813;BME280;9534;51.140;6.296;2023-04-07T15:11:26;100821.81;;;10.11;100.00
18813;BME280;9534;51.140;6.296;2023-04-07T15:15:30;100834.13;;;10.28;100.00
18813;BME280;9534;51.140;6.296;2023-04-07T15:19:33;100830.75;;;10.26;100.00
18813;BME280;9534;51.140;6.296;2023-04-07T15:23:37;100832.47;;;10.40;100.00
18813;BME280;9534;51.140;6.296;2023-04-07T15:27:42;100832.47;;;10.40;100.00
18813;BME280;9534;51.140;6.296;2023-04-07T15:31:46;100832.88;;;10.37;100.00
18813;BME280;9534;51.140;6.296;2023-04-07T15:35:49;100823.88;;;10.49;100.00
18813;BME280;9534;51.140;6.296;2023-04-07T15:39:52;100821.09;;;10.36;100.00
18813;BME280;9534;51.140;6.296;2023-04-07T15:43:59;100826.84;;;10.61;100.00
18813;BME280;9534;51.140;6.296;2023-04-07T15:48:02;100825.53;;;10.44;100.00
18813;BME280;9534;51.140;6.296;2023-04-07T15:52:06;100820.69;;;10.46;100.00
18813;BME280;9534;51.140;6.296;2023-04-07T15:56:09;100830.78;;;10.39;100.00
18813;BME280;9534;51.140;6.296;2023-04-07T16:00:16;100829.50;;;10.35;100.00
18813;BME280;9534;51.140;6.296;2023-04-07T16:04:20;100830.94;;;10.31;100.00
18813;BME280;9534;51.140;6.296;2023-04-07T16:08:23;100838.31;;;10.24;100.00
18813;BME280;9534;51.140;6.296;2023-04-07T16:12:26;100839.19;;;10.37;100.00
18813;BME280;9534;51.140;6.296;2023-04-07T16:16:31;100838.78;;;10.06;100.00
18813;BME280;9534;51.140;6.296;2023-04-07T16:20:36;100852.69;;;10.05;100.00
18813;BME280;9534;51.140;6.296;2023-04-07T16:24:40;100851.16;;;9.96;100.00
18813;BME280;9534;51.140;6.296;2023-04-07T16:28:43;100856.81;;;9.94;100.00
18813;BME280;9534;51.140;6.296;2023-04-07T16:32:48;100866.34;;;10.05;100.00
18813;BME280;9534;51.140;6.296;2023-04-07T16:36:51;100861.63;;;9.92;100.00
18813;BME280;9534;51.140;6.296;2023-04-07T16:40:54;100872.56;;;9.92;100.00
18813;BME280;9534;51.140;6.296;2023-04-07T16:45:06;100874.22;;;9.87;100.00
18813;BME280;9534;51.140;6.296;2023-04-07T16:49:10;100879.69;;;9.87;100.00
18813;BME280;9534;51.140;6.296;2023-04-07T16:53:14;100894.03;;;9.95;100.00
18813;BME280;9534;51.140;6.296;2023-04-07T16:57:18;100892.56;;;9.93;100.00
18813;BME280;9534;51.140;6.296;2023-04-07T17:01:21;100896.44;;;9.78;100.00
18813;BME280;9534;51.140;6.296;2023-04-07T17:05:26;100909.50;;;9.82;100.00
18813;BME280;9534;51.140;6.296;2023-04-07T17:09:31;100912.78;;;9.71;100.00
18813;BME280;9534;51.140;6.296;2023-04-07T17:13:34;100911.09;;;9.70;100.00
18813;BME280;9534;51.140;6.296;2023-04-07T17:17:38;100919.69;;;9.67;100.00
18813;BME280;9534;51.140;6.296;2023-04-07T17:21:43;100924.09;;;9.68;100.00
18813;BME280;9534;51.140;6.296;2023-04-07T17:25:47;100911.63;;;9.59;100.00
18813;BME280;9534;51.140;6.296;2023-04-07T17:29:51;100927.88;;;9.67;100.00
18813;BME280;9534;51.140;6.296;2023-04-07T17:33:54;100937.06;;;9.60;100.00
18813;BME280;9534;51.140;6.296;2023-04-07T17:37:59;100946.22;;;9.52;100.00
18813;BME280;9534;51.140;6.296;2023-04-07T17:42:03;100951.91;;;9.51;100.00
18813;BME280;9534;51.140;6.296;2023-04-07T17:46:06;100950.38;;;9.48;100.00
18813;BME280;9534;51.140;6.296;2023-04-07T17:50:10;100954.59;;;9.44;100.00
18813;BME280;9534;51.140;6.296;2023-04-07T17:54:14;100963.41;;;9.46;100.00
18813;BME280;9534;51.140;6.296;2023-04-07T17:58:18;100965.50;;;9.44;100.00
18813;BME280;9534;51.140;6.296;2023-04-07T18:02:22;100967.16;;;9.45;100.00
18813;BME280;9534;51.140;6.296;2023-04-07T18:06:25;100971.59;;;9.46;100.00
18813;BME280;9534;51.140;6.296;2023-04-07T18:10:30;100978.53;;;9.42;100.00
18813;BME280;9534;51.140;6.296;2023-04-07T18:14:34;100983.97;;;9.42;100.00
18813;BME280;9534;51.140;6.296;2023-04-07T18:18:37;100981.81;;;9.38;100.00
18813;BME280;9534;51.140;6.296;2023-04-07T18:22:40;100997.28;;;9.31;100.00
18813;BME280;9534;51.140;6.296;2023-04-07T18:26:46;101000.59;;;9.26;100.00
18813;BME280;9534;51.140;6.296;2023-04-07T18:30:58;101011.16;;;9.29;100.00
18813;BME280;9534;51.140;6.296;2023-04-07T18:35:02;101006.47;;;9.23;100.00
18813;BME280;9534;51.140;6.296;2023-04-07T18:39:05;101017.75;;;9.20;100.00
18813;BME280;9534;51.140;6.296;2023-04-07T18:43:09;101019.06;;;9.24;100.00
18813;BME280;9534;51.140;6.296;2023-04-07T18:47:13;101013.06;;;9.14;100.00
18813;BME280;9534;51.140;6.296;2023-04-07T18:51:16;101023.13;;;9.14;100.00
18813;BME280;9534;51.140;6.296;2023-04-07T18:55:19;101032.34;;;9.13;100.00
18813;BME280;9534;51.140;6.296;2023-04-07T18:59:24;101038.69;;;9.13;100.00
18813;BME280;9534;51.140;6.296;2023-04-07T19:03:27;101037.38;;;9.09;100.00
18813;BME280;9534;51.140;6.296;2023-04-07T19:07:30;101050.81;;;9.11;100.00
18813;BME280;9534;51.140;6.296;2023-04-07T19:11:33;101066.16;;;9.12;100.00
18813;BME280;9534;51.140;6.296;2023-04-07T19:15:38;101063.81;;;9.09;100.00
18813;BME280;9534;51.140;6.296;2023-04-07T19:19:45;101066.81;;;9.14;100.00
18813;BME280;9534;51.140;6.296;2023-04-07T19:23:48;101069.47;;;9.07;100.00
18813;BME280;9534;51.140;6.296;2023-04-07T19:27:53;101073.81;;;9.02;100.00
18813;BME280;9534;51.140;6.296;2023-04-07T19:31:58;101072.97;;;9.01;100.00
18813;BME280;9534;51.140;6.296;2023-04-07T19:36:01;101078.13;;;8.96;100.00
18813;BME280;9534;51.140;6.296;2023-04-07T19:40:06;101079.53;;;8.92;100.00
18813;BME280;9534;51.140;6.296;2023-04-07T19:44:10;101086.69;;;8.93;100.00
18813;BME280;9534;51.140;6.296;2023-04-07T19:48:14;101086.31;;;8.96;100.00
18813;BME280;9534;51.140;6.296;2023-04-07T19:52:18;101087.94;;;8.91;100.00
18813;BME280;9534;51.140;6.296;2023-04-07T19:56:21;101095.91;;;8.92;100.00
18813;BME280;9534;51.140;6.296;2023-04-07T20:00:26;101101.38;;;8.92;100.00
18813;BME280;9534;51.140;6.296;2023-04-07T20:04:34;101105.53;;;8.88;100.00
18813;BME280;9534;51.140;6.296;2023-04-07T20:08:37;101108.91;;;8.90;100.00
18813;BME280;9534;51.140;6.296;2023-04-07T20:12:40;101113.41;;;8.83;100.00
18813;BME280;9534;51.140;6.296;2023-04-07T20:16:43;101111.94;;;8.95;100.00
18813;BME280;9534;51.140;6.296;2023-04-07T20:20:48;101107.78;;;8.85;100.00
18813;BME280;9534;51.140;6.296;2023-04-07T20:24:51;101113.63;;;8.82;100.00
18813;BME280;9534;51.140;6.296;2023-04-07T20:28:54;101115.88;;;8.78;100.00
18813;BME280;9534;51.140;6.296;2023-04-07T20:32:57;101124.63;;;8.74;100.00
18813;BME280;9534;51.140;6.296;2023-04-07T20:37:02;101120.50;;;8.78;100.00
18813;BME280;9534;51.140;6.296;2023-04-07T20:41:09;101128.84;;;8.76;100.00
18813;BME280;9534;51.140;6.296;2023-04-07T20:45:12;101129.50;;;8.78;100.00
18813;BME280;9534;51.140;6.296;2023-04-07T20:49:16;101122.06;;;8.72;100.00
18813;BME280;9534;51.140;6.296;2023-04-07T20:53:20;101129.59;;;8.70;100.00
18813;BME280;9534;51.140;6.296;2023-04-07T20:57:24;101130.91;;;8.74;100.00
18813;BME280;9534;51.140;6.296;2023-04-07T21:01:27;101143.44;;;8.69;100.00
18813;BME280;9534;51.140;6.296;2023-04-07T21:05:30;101143.97;;;8.64;100.00
18813;BME280;9534;51.140;6.296;2023-04-07T21:09:35;101142.47;;;8.62;100.00
18813;BME280;9534;51.140;6.296;2023-04-07T21:13:38;101147.06;;;8.61;100.00
18813;BME280;9534;51.140;6.296;2023-04-07T21:17:42;101151.31;;;8.64;100.00
18813;BME280;9534;51.140;6.296;2023-04-07T21:21:45;101159.03;;;8.60;100.00
18813;BME280;9534;51.140;6.296;2023-04-07T21:25:49;101160.09;;;8.60;100.00
18813;BME280;9534;51.140;6.296;2023-04-07T21:29:52;101160.72;;;8.61;100.00
18813;BME280;9534;51.140;6.296;2023-04-07T21:33:56;101157.06;;;8.55;100.00